sensor_id;sensor_type;location;lat;lon;timestamp;temperature;humidity
46319;DHT22;32042;50.916;2.926;2022-07-06T00:01:38;12.90;99.90
46319;DHT22;32042;50.916;2.926;2022-07-06T00:04:04;12.90;99.90
46319;DHT22;32042;50.916;2.926;2022-07-06T00:06:30;12.90;99.90
46319;DHT22;32042;50.916;2.926;2022-07-06T00:08:56;12.80;99.90
46319;DHT22;32042;50.916;2.926;2022-07-06T00:11:22;12.80;99.90
46319;DHT22;32042;50.916;2.926;2022-07-06T00:13:49;12.80;99.90
46319;DHT22;32042;50.916;2.926;2022-07-06T00:16:15;12.70;99.90
46319;DHT22;32042;50.916;2.926;2022-07-06T00:18:40;12.70;99.90
46319;DHT22;32042;50.916;2.926;2022-07-06T00:21:06;12.70;99.90
46319;DHT22;32042;50.916;2.926;2022-07-06T00:23:32;12.70;99.90
46319;DHT22;32042;50.916;2.926;2022-07-06T00:25:58;12.60;99.90
46319;DHT22;32042;50.916;2.926;2022-07-06T00:28:23;12.60;99.90
46319;DHT22;32042;50.916;2.926;2022-07-06T00:30:49;12.50;99.90
46319;DHT22;32042;50.916;2.926;2022-07-06T00:33:15;12.50;99.90
46319;DHT22;32042;50.916;2.926;2022-07-06T00:35:41;12.50;99.90
46319;DHT22;32042;50.916;2.926;2022-07-06T00:38:06;12.50;99.90
46319;DHT22;32042;50.916;2.926;2022-07-06T00:40:32;12.50;99.90
46319;DHT22;32042;50.916;2.926;2022-07-06T00:42:58;12.50;99.90
46319;DHT22;32042;50.916;2.926;2022-07-06T00:45:24;12.50;99.90
46319;DHT22;32042;50.916;2.926;2022-07-06T00:47:49;12.50;99.90
46319;DHT22;32042;50.916;2.926;2022-07-06T00:50:16;12.50;99.90
46319;DHT22;32042;50.916;2.926;2022-07-06T00:52:53;12.50;99.90
46319;DHT22;32042;50.916;2.926;2022-07-06T00:55:25;12.50;99.90
46319;DHT22;32042;50.916;2.926;2022-07-06T00:57:52;12.50;99.90
46319;DHT22;32042;50.916;2.926;2022-07-06T01:00:21;12.50;99.90
46319;DHT22;32042;50.916;2.926;2022-07-06T01:02:47;12.50;99.90
46319;DHT22;32042;50.916;2.926;2022-07-06T01:05:14;12.50;99.90
46319;DHT22;32042;50.916;2.926;2022-07-06T01:07:42;12.60;99.90
46319;DHT22;32042;50.916;2.926;2022-07-06T01:10:10;12.60;99.90
46319;DHT22;32042;50.916;2.926;2022-07-06T01:12:37;12.60;99.90
46319;DHT22;32042;50.916;2.926;2022-07-06T01:15:06;12.60;99.90
46319;DHT22;32042;50.916;2.926;2022-07-06T01:17:32;12.70;99.90
46319;DHT22;32042;50.916;2.926;2022-07-06T01:20:04;12.70;99.90
46319;DHT22;32042;50.916;2.926;2022-07-06T01:22:30;12.70;99.90
46319;DHT22;32042;50.916;2.926;2022-07-06T01:24:56;12.60;99.90
46319;DHT22;32042;50.916;2.926;2022-07-06T01:27:21;12.60;99.90
46319;DHT22;32042;50.916;2.926;2022-07-06T01:29:47;12.60;99.90
46319;DHT22;32042;50.916;2.926;2022-07-06T01:32:13;12.60;99.90
46319;DHT22;32042;50.916;2.926;2022-07-06T01:34:40;12.60;99.90
46319;DHT22;32042;50.916;2.926;2022-07-06T01:37:06;12.60;99.90
46319;DHT22;32042;50.916;2.926;2022-07-06T01:39:31;12.60;99.90
46319;DHT22;32042;50.916;2.926;2022-07-06T01:41:57;12.60;99.90
46319;DHT22;32042;50.916;2.926;2022-07-06T01:44:23;12.70;99.90
46319;DHT22;32042;50.916;2.926;2022-07-06T01:46:48;12.70;99.90
46319;DHT22;32042;50.916;2.926;2022-07-06T01:49:15;12.70;99.90
46319;DHT22;32042;50.916;2.926;2022-07-06T01:51:41;12.70;99.90
46319;DHT22;32042;50.916;2.926;2022-07-06T01:54:07;12.80;99.90
46319;DHT22;32042;50.916;2.926;2022-07-06T01:56:32;12.80;99.90
46319;DHT22;32042;50.916;2.926;2022-07-06T01:58:58;12.80;99.90
46319;DHT22;32042;50.916;2.926;2022-07-06T02:01:24;12.80;99.90
46319;DHT22;32042;50.916;2.926;2022-07-06T02:03:50;12.80;99.90
46319;DHT22;32042;50.916;2.926;2022-07-06T02:06:15;12.80;99.90
46319;DHT22;32042;50.916;2.926;2022-07-06T02:08:42;12.80;99.90
46319;DHT22;32042;50.916;2.926;2022-07-06T02:11:09;12.80;99.90
46319;DHT22;32042;50.916;2.926;2022-07-06T02:13:36;12.80;99.90
46319;DHT22;32042;50.916;2.926;2022-07-06T02:16:02;12.70;99.90
46319;DHT22;32042;50.916;2.926;2022-07-06T02:18:28;12.70;99.90
46319;DHT22;32042;50.916;2.926;2022-07-06T02:20:53;12.70;99.90
46319;DHT22;32042;50.916;2.926;2022-07-06T02:23:19;12.60;99.90
46319;DHT22;32042;50.916;2.926;2022-07-06T02:25:45;12.60;99.90
46319;DHT22;32042;50.916;2.926;2022-07-06T02:28:11;12.60;99.90
46319;DHT22;32042;50.916;2.926;2022-07-06T02:30:36;12.60;99.90
46319;DHT22;32042;50.916;2.926;2022-07-06T02:33:03;12.50;99.90
46319;DHT22;32042;50.916;2.926;2022-07-06T02:35:30;12.50;99.90
46319;DHT22;32042;50.916;2.926;2022-07-06T02:37:58;12.40;99.90
46319;DHT22;32042;50.916;2.926;2022-07-06T02:40:24;12.40;99.90
46319;DHT22;32042;50.916;2.926;2022-07-06T02:42:51;12.40;99.90
46319;DHT22;32042;50.916;2.926;2022-07-06T02:45:17;12.30;99.90
46319;DHT22;32042;50.916;2.926;2022-07-06T02:47:44;12.30;99.90
46319;DHT22;32042;50.916;2.926;2022-07-06T02:50:11;12.30;99.90
46319;DHT22;32042;50.916;2.926;2022-07-06T02:52:38;12.30;99.90
46319;DHT22;32042;50.916;2.926;2022-07-06T02:55:04;12.20;99.90
46319;DHT22;32042;50.916;2.926;2022-07-06T02:57:30;12.20;99.90
46319;DHT22;32042;50.916;2.926;2022-07-06T02:59:56;12.20;99.90
46319;DHT22;32042;50.916;2.926;2022-07-06T03:02:21;12.20;99.90
46319;DHT22;32042;50.916;2.926;2022-07-06T03:04:47;12.30;99.90
46319;DHT22;32042;50.916;2.926;2022-07-06T03:07:13;12.30;99.90
46319;DHT22;32042;50.916;2.926;2022-07-06T03:09:38;12.20;99.90
46319;DHT22;32042;50.916;2.926;2022-07-06T03:12:04;12.20;99.90
46319;DHT22;32042;50.916;2.926;2022-07-06T03:14:30;12.30;99.90
46319;DHT22;32042;50.916;2.926;2022-07-06T03:16:56;12.20;99.90
46319;DHT22;32042;50.916;2.926;2022-07-06T03:19:21;12.30;99.90
46319;DHT22;32042;50.916;2.926;2022-07-06T03:21:47;12.20;99.90
46319;DHT22;32042;50.916;2.926;2022-07-06T03:24:13;12.20;99.90
46319;DHT22;32042;50.916;2.926;2022-07-06T03:26:38;12.20;99.90
46319;DHT22;32042;50.916;2.926;2022-07-06T03:29:04;12.10;99.90
46319;DHT22;32042;50.916;2.926;2022-07-06T03:31:30;12.00;99.90
46319;DHT22;32042;50.916;2.926;2022-07-06T03:33:56;12.00;99.90
46319;DHT22;32042;50.916;2.926;2022-07-06T03:36:21;12.00;99.90
46319;DHT22;32042;50.916;2.926;2022-07-06T03:38:47;12.00;99.90
46319;DHT22;32042;50.916;2.926;2022-07-06T03:41:13;11.90;99.90
46319;DHT22;32042;50.916;2.926;2022-07-06T03:43:38;11.90;99.90
46319;DHT22;32042;50.916;2.926;2022-07-06T03:46:04;11.90;99.90
46319;DHT22;32042;50.916;2.926;2022-07-06T03:48:30;11.80;99.90
46319;DHT22;32042;50.916;2.926;2022-07-06T03:50:55;11.80;99.90
46319;DHT22;32042;50.916;2.926;2022-07-06T03:53:22;11.80;99.90
46319;DHT22;32042;50.916;2.926;2022-07-06T03:55:47;11.80;99.90
46319;DHT22;32042;50.916;2.926;2022-07-06T03:58:33;11.80;99.90
46319;DHT22;32042;50.916;2.926;2022-07-06T04:00:59;11.80;99.90
46319;DHT22;32042;50.916;2.926;2022-07-06T04:03:25;11.90;99.90
46319;DHT22;32042;50.916;2.926;2022-07-06T04:05:51;11.90;99.90
46319;DHT22;32042;50.916;2.926;2022-07-06T04:08:16;12.00;99.90
46319;DHT22;32042;50.916;2.926;2022-07-06T04:10:42;12.00;99.90
46319;DHT22;32042;50.916;2.926;2022-07-06T04:13:08;12.10;99.90
46319;DHT22;32042;50.916;2.926;2022-07-06T04:15:34;12.10;99.90
46319;DHT22;32042;50.916;2.926;2022-07-06T04:17:59;12.20;99.90
46319;DHT22;32042;50.916;2.926;2022-07-06T04:20:25;12.20;99.90
46319;DHT22;32042;50.916;2.926;2022-07-06T04:22:52;12.20;99.90
46319;DHT22;32042;50.916;2.926;2022-07-06T04:25:18;12.20;99.90
46319;DHT22;32042;50.916;2.926;2022-07-06T04:27:43;12.30;99.90
46319;DHT22;32042;50.916;2.926;2022-07-06T04:30:10;12.30;99.90
46319;DHT22;32042;50.916;2.926;2022-07-06T04:32:36;12.30;99.90
46319;DHT22;32042;50.916;2.926;2022-07-06T04:35:03;12.30;99.90
46319;DHT22;32042;50.916;2.926;2022-07-06T04:37:29;12.30;99.90
46319;DHT22;32042;50.916;2.926;2022-07-06T04:39:54;12.30;99.90
46319;DHT22;32042;50.916;2.926;2022-07-06T04:42:20;12.30;99.90
46319;DHT22;32042;50.916;2.926;2022-07-06T04:44:46;12.30;99.90
46319;DHT22;32042;50.916;2.926;2022-07-06T04:47:12;12.30;99.90
46319;DHT22;32042;50.916;2.926;2022-07-06T04:49:38;12.40;99.90
46319;DHT22;32042;50.916;2.926;2022-07-06T04:52:05;12.40;99.90
46319;DHT22;32042;50.916;2.926;2022-07-06T04:54:30;12.50;99.90
46319;DHT22;32042;50.916;2.926;2022-07-06T04:56:56;12.50;99.90
46319;DHT22;32042;50.916;2.926;2022-07-06T04:59:22;12.50;99.90
46319;DHT22;32042;50.916;2.926;2022-07-06T05:01:48;12.60;99.90
46319;DHT22;32042;50.916;2.926;2022-07-06T05:04:14;12.60;99.90
46319;DHT22;32042;50.916;2.926;2022-07-06T05:06:40;12.70;99.90
46319;DHT22;32042;50.916;2.926;2022-07-06T05:09:06;12.70;99.90
46319;DHT22;32042;50.916;2.926;2022-07-06T05:11:31;12.80;99.90
46319;DHT22;32042;50.916;2.926;2022-07-06T05:13:57;12.80;99.90
46319;DHT22;32042;50.916;2.926;2022-07-06T05:16:23;12.90;99.90
46319;DHT22;32042;50.916;2.926;2022-07-06T05:18:49;13.00;99.90
46319;DHT22;32042;50.916;2.926;2022-07-06T05:21:15;13.00;99.90
46319;DHT22;32042;50.916;2.926;2022-07-06T05:23:41;13.20;99.90
46319;DHT22;32042;50.916;2.926;2022-07-06T05:26:06;13.30;99.90
46319;DHT22;32042;50.916;2.926;2022-07-06T05:28:32;13.50;99.90
46319;DHT22;32042;50.916;2.926;2022-07-06T05:30:58;13.60;99.90
46319;DHT22;32042;50.916;2.926;2022-07-06T05:33:24;13.80;99.90
46319;DHT22;32042;50.916;2.926;2022-07-06T05:35:50;14.00;99.90
46319;DHT22;32042;50.916;2.926;2022-07-06T05:38:16;14.10;99.90
46319;DHT22;32042;50.916;2.926;2022-07-06T05:40:42;14.30;99.90
46319;DHT22;32042;50.916;2.926;2022-07-06T05:43:07;14.50;99.90
46319;DHT22;32042;50.916;2.926;2022-07-06T05:45:33;14.60;99.90
46319;DHT22;32042;50.916;2.926;2022-07-06T05:47:59;14.70;99.90
46319;DHT22;32042;50.916;2.926;2022-07-06T05:50:43;14.80;99.90
46319;DHT22;32042;50.916;2.926;2022-07-06T05:53:09;14.80;99.90
46319;DHT22;32042;50.916;2.926;2022-07-06T05:55:34;14.90;99.90
46319;DHT22;32042;50.916;2.926;2022-07-06T05:58:00;15.00;99.90
46319;DHT22;32042;50.916;2.926;2022-07-06T06:00:27;15.10;99.90
46319;DHT22;32042;50.916;2.926;2022-07-06T06:02:52;15.20;99.90
46319;DHT22;32042;50.916;2.926;2022-07-06T06:05:19;15.20;99.90
46319;DHT22;32042;50.916;2.926;2022-07-06T06:07:45;15.30;99.90
46319;DHT22;32042;50.916;2.926;2022-07-06T06:10:17;15.30;99.90
46319;DHT22;32042;50.916;2.926;2022-07-06T06:12:44;15.30;99.90
46319;DHT22;32042;50.916;2.926;2022-07-06T06:15:10;15.30;99.90
46319;DHT22;32042;50.916;2.926;2022-07-06T06:17:37;15.30;99.90
46319;DHT22;32042;50.916;2.926;2022-07-06T06:20:05;15.30;99.90
46319;DHT22;32042;50.916;2.926;2022-07-06T06:22:43;15.20;99.90
46319;DHT22;32042;50.916;2.926;2022-07-06T06:25:09;15.20;99.90
46319;DHT22;32042;50.916;2.926;2022-07-06T06:27:34;15.40;99.90
46319;DHT22;32042;50.916;2.926;2022-07-06T06:30:00;15.40;99.90
46319;DHT22;32042;50.916;2.926;2022-07-06T06:32:26;15.40;99.90
46319;DHT22;32042;50.916;2.926;2022-07-06T06:34:52;15.60;99.90
46319;DHT22;32042;50.916;2.926;2022-07-06T06:37:17;15.60;99.90
46319;DHT22;32042;50.916;2.926;2022-07-06T06:39:43;15.80;99.90
46319;DHT22;32042;50.916;2.926;2022-07-06T06:42:09;15.90;99.90
46319;DHT22;32042;50.916;2.926;2022-07-06T06:44:34;16.20;99.90
46319;DHT22;32042;50.916;2.926;2022-07-06T06:47:00;16.30;99.90
46319;DHT22;32042;50.916;2.926;2022-07-06T06:49:26;16.50;99.90
46319;DHT22;32042;50.916;2.926;2022-07-06T06:51:51;16.60;99.90
46319;DHT22;32042;50.916;2.926;2022-07-06T06:54:17;16.60;99.90
46319;DHT22;32042;50.916;2.926;2022-07-06T06:56:43;16.70;99.90
46319;DHT22;32042;50.916;2.926;2022-07-06T06:59:08;16.70;99.90
46319;DHT22;32042;50.916;2.926;2022-07-06T07:01:34;16.80;99.90
46319;DHT22;32042;50.916;2.926;2022-07-06T07:04:00;16.80;99.90
46319;DHT22;32042;50.916;2.926;2022-07-06T07:06:25;16.80;99.90
46319;DHT22;32042;50.916;2.926;2022-07-06T07:08:51;17.00;99.90
46319;DHT22;32042;50.916;2.926;2022-07-06T07:11:17;17.20;99.90
46319;DHT22;32042;50.916;2.926;2022-07-06T07:13:43;17.40;99.90
46319;DHT22;32042;50.916;2.926;2022-07-06T07:16:08;17.40;99.90
46319;DHT22;32042;50.916;2.926;2022-07-06T07:18:34;17.60;99.90
46319;DHT22;32042;50.916;2.926;2022-07-06T07:21:01;17.80;99.90
46319;DHT22;32042;50.916;2.926;2022-07-06T07:23:27;17.90;99.90
46319;DHT22;32042;50.916;2.926;2022-07-06T07:25:52;18.00;99.90
46319;DHT22;32042;50.916;2.926;2022-07-06T07:28:18;18.10;99.90
46319;DHT22;32042;50.916;2.926;2022-07-06T07:30:44;18.00;99.90
46319;DHT22;32042;50.916;2.926;2022-07-06T07:33:09;18.10;99.90
46319;DHT22;32042;50.916;2.926;2022-07-06T07:35:35;18.20;99.90
46319;DHT22;32042;50.916;2.926;2022-07-06T07:38:01;18.20;99.90
46319;DHT22;32042;50.916;2.926;2022-07-06T07:40:27;18.20;99.90
46319;DHT22;32042;50.916;2.926;2022-07-06T07:42:53;18.40;99.90
46319;DHT22;32042;50.916;2.926;2022-07-06T07:45:18;18.60;99.90
46319;DHT22;32042;50.916;2.926;2022-07-06T07:47:44;18.80;99.90
46319;DHT22;32042;50.916;2.926;2022-07-06T07:50:10;18.90;99.90
46319;DHT22;32042;50.916;2.926;2022-07-06T07:52:36;19.10;99.90
46319;DHT22;32042;50.916;2.926;2022-07-06T07:55:02;19.20;99.90
46319;DHT22;32042;50.916;2.926;2022-07-06T07:57:28;19.30;99.90
46319;DHT22;32042;50.916;2.926;2022-07-06T07:59:53;19.20;99.90
46319;DHT22;32042;50.916;2.926;2022-07-06T08:02:19;19.00;99.90
46319;DHT22;32042;50.916;2.926;2022-07-06T08:04:45;18.90;99.90
46319;DHT22;32042;50.916;2.926;2022-07-06T08:07:10;18.90;99.90
46319;DHT22;32042;50.916;2.926;2022-07-06T08:09:36;19.30;99.90
46319;DHT22;32042;50.916;2.926;2022-07-06T08:12:04;19.50;99.90
46319;DHT22;32042;50.916;2.926;2022-07-06T08:14:31;19.70;99.90
46319;DHT22;32042;50.916;2.926;2022-07-06T08:16:57;19.70;99.90
46319;DHT22;32042;50.916;2.926;2022-07-06T08:19:23;19.50;99.90
46319;DHT22;32042;50.916;2.926;2022-07-06T08:21:49;19.70;99.90
46319;DHT22;32042;50.916;2.926;2022-07-06T08:24:14;19.80;99.90
46319;DHT22;32042;50.916;2.926;2022-07-06T08:26:40;19.80;99.90
46319;DHT22;32042;50.916;2.926;2022-07-06T08:29:06;19.50;99.90
46319;DHT22;32042;50.916;2.926;2022-07-06T08:31:32;19.50;99.90
46319;DHT22;32042;50.916;2.926;2022-07-06T08:34:00;19.70;99.90
46319;DHT22;32042;50.916;2.926;2022-07-06T08:36:26;19.70;99.90
46319;DHT22;32042;50.916;2.926;2022-07-06T08:38:52;19.80;99.90
46319;DHT22;32042;50.916;2.926;2022-07-06T08:41:18;19.70;99.90
46319;DHT22;32042;50.916;2.926;2022-07-06T08:43:45;19.80;99.90
46319;DHT22;32042;50.916;2.926;2022-07-06T08:46:13;20.10;99.90
46319;DHT22;32042;50.916;2.926;2022-07-06T08:48:40;20.30;99.90
46319;DHT22;32042;50.916;2.926;2022-07-06T08:51:06;20.30;99.90
46319;DHT22;32042;50.916;2.926;2022-07-06T08:53:33;20.20;99.90
46319;DHT22;32042;50.916;2.926;2022-07-06T08:55:59;20.30;99.90
46319;DHT22;32042;50.916;2.926;2022-07-06T08:58:25;20.30;99.90
46319;DHT22;32042;50.916;2.926;2022-07-06T09:00:57;20.00;99.90
46319;DHT22;32042;50.916;2.926;2022-07-06T09:03:23;20.00;99.90
46319;DHT22;32042;50.916;2.926;2022-07-06T09:05:50;20.10;99.90
46319;DHT22;32042;50.916;2.926;2022-07-06T09:08:18;20.20;99.90
46319;DHT22;32042;50.916;2.926;2022-07-06T09:10:47;20.20;99.90
46319;DHT22;32042;50.916;2.926;2022-07-06T09:13:15;20.20;99.90
46319;DHT22;32042;50.916;2.926;2022-07-06T09:15:43;20.20;99.90
46319;DHT22;32042;50.916;2.926;2022-07-06T09:18:09;20.10;99.90
46319;DHT22;32042;50.916;2.926;2022-07-06T09:20:34;20.10;99.90
46319;DHT22;32042;50.916;2.926;2022-07-06T09:23:02;20.10;99.90
46319;DHT22;32042;50.916;2.926;2022-07-06T09:25:29;20.20;99.90
46319;DHT22;32042;50.916;2.926;2022-07-06T09:27:57;20.20;99.90
46319;DHT22;32042;50.916;2.926;2022-07-06T09:30:24;20.20;99.90
46319;DHT22;32042;50.916;2.926;2022-07-06T09:32:52;20.10;99.90
46319;DHT22;32042;50.916;2.926;2022-07-06T09:35:35;20.10;99.90
46319;DHT22;32042;50.916;2.926;2022-07-06T09:40:38;20.20;99.90
46319;DHT22;32042;50.916;2.926;2022-07-06T09:45:53;20.40;99.90
46319;DHT22;32042;50.916;2.926;2022-07-06T09:48:25;20.40;99.90
46319;DHT22;32042;50.916;2.926;2022-07-06T09:50:52;20.40;99.90
46319;DHT22;32042;50.916;2.926;2022-07-06T09:53:20;20.60;99.90
46319;DHT22;32042;50.916;2.926;2022-07-06T09:55:47;21.00;99.90
46319;DHT22;32042;50.916;2.926;2022-07-06T09:58:14;21.10;99.90
46319;DHT22;32042;50.916;2.926;2022-07-06T10:00:44;21.10;99.90
46319;DHT22;32042;50.916;2.926;2022-07-06T10:03:10;21.20;99.90
46319;DHT22;32042;50.916;2.926;2022-07-06T10:05:37;21.10;99.90
46319;DHT22;32042;50.916;2.926;2022-07-06T10:08:03;21.20;99.90
46319;DHT22;32042;50.916;2.926;2022-07-06T10:10:32;21.50;99.90
46319;DHT22;32042;50.916;2.926;2022-07-06T10:12:59;21.40;99.90
46319;DHT22;32042;50.916;2.926;2022-07-06T10:15:29;21.50;99.90
46319;DHT22;32042;50.916;2.926;2022-07-06T10:17:57;21.50;99.90
46319;DHT22;32042;50.916;2.926;2022-07-06T10:20:27;21.30;99.90
46319;DHT22;32042;50.916;2.926;2022-07-06T10:22:54;21.40;99.90
46319;DHT22;32042;50.916;2.926;2022-07-06T10:25:23;21.70;99.90
46319;DHT22;32042;50.916;2.926;2022-07-06T10:27:51;22.00;99.90
46319;DHT22;32042;50.916;2.926;2022-07-06T10:30:17;22.20;99.90
46319;DHT22;32042;50.916;2.926;2022-07-06T10:32:46;22.40;99.90
46319;DHT22;32042;50.916;2.926;2022-07-06T10:35:14;22.40;99.90
46319;DHT22;32042;50.916;2.926;2022-07-06T10:37:40;22.40;99.90
46319;DHT22;32042;50.916;2.926;2022-07-06T10:40:07;22.50;99.90
46319;DHT22;32042;50.916;2.926;2022-07-06T10:43:02;22.60;99.90
46319;DHT22;32042;50.916;2.926;2022-07-06T10:48:16;22.90;99.90
46319;DHT22;32042;50.916;2.926;2022-07-06T10:50:46;23.00;99.90
46319;DHT22;32042;50.916;2.926;2022-07-06T10:53:14;22.90;99.90
46319;DHT22;32042;50.916;2.926;2022-07-06T10:55:45;22.80;99.90
46319;DHT22;32042;50.916;2.926;2022-07-06T10:58:13;22.60;99.90
46319;DHT22;32042;50.916;2.926;2022-07-06T11:00:50;22.20;99.90
46319;DHT22;32042;50.916;2.926;2022-07-06T11:03:49;22.00;99.90
46319;DHT22;32042;50.916;2.926;2022-07-06T11:06:19;22.10;99.90
46319;DHT22;32042;50.916;2.926;2022-07-06T11:16:28;22.50;99.90
46319;DHT22;32042;50.916;2.926;2022-07-06T11:21:37;22.90;99.90
46319;DHT22;32042;50.916;2.926;2022-07-06T11:24:05;23.10;99.90
46319;DHT22;32042;50.916;2.926;2022-07-06T11:26:32;23.10;99.90
46319;DHT22;32042;50.916;2.926;2022-07-06T11:28:58;23.20;99.90
46319;DHT22;32042;50.916;2.926;2022-07-06T11:31:26;22.80;99.90
46319;DHT22;32042;50.916;2.926;2022-07-06T11:33:51;23.00;99.90
46319;DHT22;32042;50.916;2.926;2022-07-06T11:36:21;23.10;99.90
46319;DHT22;32042;50.916;2.926;2022-07-06T11:38:49;23.10;99.90
46319;DHT22;32042;50.916;2.926;2022-07-06T11:41:16;23.10;99.90
46319;DHT22;32042;50.916;2.926;2022-07-06T11:43:44;23.20;99.90
46319;DHT22;32042;50.916;2.926;2022-07-06T11:46:30;23.40;99.90
46319;DHT22;32042;50.916;2.926;2022-07-06T11:49:01;23.60;99.90
46319;DHT22;32042;50.916;2.926;2022-07-06T11:51:32;23.70;99.90
46319;DHT22;32042;50.916;2.926;2022-07-06T11:54:00;23.60;99.90
46319;DHT22;32042;50.916;2.926;2022-07-06T11:56:28;23.40;99.90
46319;DHT22;32042;50.916;2.926;2022-07-06T11:58:56;22.70;99.90
46319;DHT22;32042;50.916;2.926;2022-07-06T12:01:23;22.90;99.90
46319;DHT22;32042;50.916;2.926;2022-07-06T12:03:49;23.00;99.90
46319;DHT22;32042;50.916;2.926;2022-07-06T12:06:20;22.90;99.90
46319;DHT22;32042;50.916;2.926;2022-07-06T12:11:22;22.40;99.90
46319;DHT22;32042;50.916;2.926;2022-07-06T12:13:52;22.40;99.90
46319;DHT22;32042;50.916;2.926;2022-07-06T12:16:19;22.50;99.90
46319;DHT22;32042;50.916;2.926;2022-07-06T12:18:47;22.70;99.90
46319;DHT22;32042;50.916;2.926;2022-07-06T12:21:15;22.60;99.90
46319;DHT22;32042;50.916;2.926;2022-07-06T12:23:48;22.70;99.90
46319;DHT22;32042;50.916;2.926;2022-07-06T12:26:15;23.00;99.90
46319;DHT22;32042;50.916;2.926;2022-07-06T12:28:42;22.90;99.90
46319;DHT22;32042;50.916;2.926;2022-07-06T12:31:09;23.10;99.90
46319;DHT22;32042;50.916;2.926;2022-07-06T12:33:36;23.30;99.90
46319;DHT22;32042;50.916;2.926;2022-07-06T12:36:12;23.50;99.90
46319;DHT22;32042;50.916;2.926;2022-07-06T12:38:45;23.30;99.90
46319;DHT22;32042;50.916;2.926;2022-07-06T12:41:23;23.40;99.90
46319;DHT22;32042;50.916;2.926;2022-07-06T12:43:49;23.60;99.90
46319;DHT22;32042;50.916;2.926;2022-07-06T12:46:29;23.80;99.90
46319;DHT22;32042;50.916;2.926;2022-07-06T12:48:57;23.80;99.90
46319;DHT22;32042;50.916;2.926;2022-07-06T12:51:23;23.60;99.90
46319;DHT22;32042;50.916;2.926;2022-07-06T12:53:49;23.60;99.90
46319;DHT22;32042;50.916;2.926;2022-07-06T12:56:16;23.40;99.90
46319;DHT22;32042;50.916;2.926;2022-07-06T12:59:01;23.40;99.90
46319;DHT22;32042;50.916;2.926;2022-07-06T13:01:27;23.60;99.90
46319;DHT22;32042;50.916;2.926;2022-07-06T13:03:57;23.80;99.90
46319;DHT22;32042;50.916;2.926;2022-07-06T13:06:41;23.70;99.90
46319;DHT22;32042;50.916;2.926;2022-07-06T13:09:06;23.70;99.90
46319;DHT22;32042;50.916;2.926;2022-07-06T13:11:32;23.70;99.90
46319;DHT22;32042;50.916;2.926;2022-07-06T13:13:59;23.70;99.90
46319;DHT22;32042;50.916;2.926;2022-07-06T13:16:25;23.80;99.90
46319;DHT22;32042;50.916;2.926;2022-07-06T13:18:56;23.90;99.90
46319;DHT22;32042;50.916;2.926;2022-07-06T13:21:22;24.00;99.90
46319;DHT22;32042;50.916;2.926;2022-07-06T13:23:47;23.90;99.90
46319;DHT22;32042;50.916;2.926;2022-07-06T13:26:13;23.80;99.90
46319;DHT22;32042;50.916;2.926;2022-07-06T13:28:39;23.90;99.90
46319;DHT22;32042;50.916;2.926;2022-07-06T13:31:05;24.00;99.90
46319;DHT22;32042;50.916;2.926;2022-07-06T13:33:30;24.30;99.90
46319;DHT22;32042;50.916;2.926;2022-07-06T13:35:56;24.20;99.90
46319;DHT22;32042;50.916;2.926;2022-07-06T13:38:22;24.10;99.90
46319;DHT22;32042;50.916;2.926;2022-07-06T13:40:47;23.80;99.90
46319;DHT22;32042;50.916;2.926;2022-07-06T13:43:13;23.90;99.90
46319;DHT22;32042;50.916;2.926;2022-07-06T13:45:39;24.10;99.90
46319;DHT22;32042;50.916;2.926;2022-07-06T13:48:04;23.90;99.90
46319;DHT22;32042;50.916;2.926;2022-07-06T13:50:30;24.00;99.90
46319;DHT22;32042;50.916;2.926;2022-07-06T13:52:58;24.10;99.90
46319;DHT22;32042;50.916;2.926;2022-07-06T13:55:24;24.30;99.90
46319;DHT22;32042;50.916;2.926;2022-07-06T13:57:49;24.20;99.90
46319;DHT22;32042;50.916;2.926;2022-07-06T14:00:15;24.10;99.90
46319;DHT22;32042;50.916;2.926;2022-07-06T14:02:44;24.10;99.90
46319;DHT22;32042;50.916;2.926;2022-07-06T14:05:10;24.00;99.90
46319;DHT22;32042;50.916;2.926;2022-07-06T14:07:36;24.00;99.90
46319;DHT22;32042;50.916;2.926;2022-07-06T14:10:02;24.00;99.90
46319;DHT22;32042;50.916;2.926;2022-07-06T14:12:28;23.90;99.90
46319;DHT22;32042;50.916;2.926;2022-07-06T14:14:54;23.90;99.90
46319;DHT22;32042;50.916;2.926;2022-07-06T14:17:19;24.00;99.90
46319;DHT22;32042;50.916;2.926;2022-07-06T14:19:45;24.20;99.90
46319;DHT22;32042;50.916;2.926;2022-07-06T14:22:11;24.10;99.90
46319;DHT22;32042;50.916;2.926;2022-07-06T14:24:37;23.80;99.90
46319;DHT22;32042;50.916;2.926;2022-07-06T14:27:03;23.80;99.90
46319;DHT22;32042;50.916;2.926;2022-07-06T14:29:28;23.80;99.90
46319;DHT22;32042;50.916;2.926;2022-07-06T14:31:54;23.70;99.90
46319;DHT22;32042;50.916;2.926;2022-07-06T14:34:20;23.50;99.90
46319;DHT22;32042;50.916;2.926;2022-07-06T14:36:45;23.30;99.90
46319;DHT22;32042;50.916;2.926;2022-07-06T14:39:11;23.40;99.90
46319;DHT22;32042;50.916;2.926;2022-07-06T14:41:38;23.50;99.90
46319;DHT22;32042;50.916;2.926;2022-07-06T14:44:04;23.60;99.90
46319;DHT22;32042;50.916;2.926;2022-07-06T14:46:30;23.40;99.90
46319;DHT22;32042;50.916;2.926;2022-07-06T14:48:56;23.30;99.90
46319;DHT22;32042;50.916;2.926;2022-07-06T14:51:22;23.30;99.90
46319;DHT22;32042;50.916;2.926;2022-07-06T14:53:48;23.40;99.90
46319;DHT22;32042;50.916;2.926;2022-07-06T14:56:14;23.50;99.90
46319;DHT22;32042;50.916;2.926;2022-07-06T14:58:39;23.60;99.90
46319;DHT22;32042;50.916;2.926;2022-07-06T15:01:05;23.70;99.90
46319;DHT22;32042;50.916;2.926;2022-07-06T15:03:31;23.80;99.90
46319;DHT22;32042;50.916;2.926;2022-07-06T15:05:57;24.10;99.90
46319;DHT22;32042;50.916;2.926;2022-07-06T15:08:23;24.10;99.90
46319;DHT22;32042;50.916;2.926;2022-07-06T15:10:48;24.10;99.90
46319;DHT22;32042;50.916;2.926;2022-07-06T15:13:24;24.30;99.90
46319;DHT22;32042;50.916;2.926;2022-07-06T15:15:50;24.00;99.90
46319;DHT22;32042;50.916;2.926;2022-07-06T15:18:16;23.80;99.90
46319;DHT22;32042;50.916;2.926;2022-07-06T15:20:41;23.80;99.90
46319;DHT22;32042;50.916;2.926;2022-07-06T15:23:07;23.70;99.90
46319;DHT22;32042;50.916;2.926;2022-07-06T15:25:33;23.60;99.90
46319;DHT22;32042;50.916;2.926;2022-07-06T15:27:58;23.70;99.90
46319;DHT22;32042;50.916;2.926;2022-07-06T15:30:24;23.80;99.90
46319;DHT22;32042;50.916;2.926;2022-07-06T15:32:50;23.80;99.90
46319;DHT22;32042;50.916;2.926;2022-07-06T15:35:15;23.70;99.90
46319;DHT22;32042;50.916;2.926;2022-07-06T15:37:41;23.60;99.90
46319;DHT22;32042;50.916;2.926;2022-07-06T15:40:25;23.40;99.90
46319;DHT22;32042;50.916;2.926;2022-07-06T15:43:10;23.50;99.90
46319;DHT22;32042;50.916;2.926;2022-07-06T15:45:36;23.70;99.90
46319;DHT22;32042;50.916;2.926;2022-07-06T15:48:06;23.70;99.90
46319;DHT22;32042;50.916;2.926;2022-07-06T15:50:32;23.50;99.90